sensor_id;sensor_type;location;lat;lon;timestamp;temperature;humidity
71084;DHT22;58741;52.672;13.548;2022-09-09T00:02:16;15.60;91.20
71084;DHT22;58741;52.672;13.548;2022-09-09T00:04:55;15.60;91.30
71084;DHT22;58741;52.672;13.548;2022-09-09T00:13:05;15.40;91.00
71084;DHT22;58741;52.672;13.548;2022-09-09T00:18:40;15.30;91.00
71084;DHT22;58741;52.672;13.548;2022-09-09T00:21:12;15.20;90.90
71084;DHT22;58741;52.672;13.548;2022-09-09T00:23:47;15.20;90.90
71084;DHT22;58741;52.672;13.548;2022-09-09T00:26:22;15.10;90.80
71084;DHT22;58741;52.672;13.548;2022-09-09T00:31:37;15.00;90.70
71084;DHT22;58741;52.672;13.548;2022-09-09T00:36:39;14.90;90.80
71084;DHT22;58741;52.672;13.548;2022-09-09T00:39:08;14.90;90.80
71084;DHT22;58741;52.672;13.548;2022-09-09T00:44:32;14.80;91.40
71084;DHT22;58741;52.672;13.548;2022-09-09T00:56:05;14.60;91.10
71084;DHT22;58741;52.672;13.548;2022-09-09T00:58:33;14.60;91.20
71084;DHT22;58741;52.672;13.548;2022-09-09T01:01:09;14.60;91.20
71084;DHT22;58741;52.672;13.548;2022-09-09T01:03:56;14.60;91.20
71084;DHT22;58741;52.672;13.548;2022-09-09T01:06:32;14.60;91.20
71084;DHT22;58741;52.672;13.548;2022-09-09T01:12:09;14.50;91.20
71084;DHT22;58741;52.672;13.548;2022-09-09T01:17:22;14.40;91.20
71084;DHT22;58741;52.672;13.548;2022-09-09T01:20:24;14.40;91.30
71084;DHT22;58741;52.672;13.548;2022-09-09T01:28:29;14.30;91.40
71084;DHT22;58741;52.672;13.548;2022-09-09T01:30:57;14.20;91.30
71084;DHT22;58741;52.672;13.548;2022-09-09T01:33:23;14.20;91.50
71084;DHT22;58741;52.672;13.548;2022-09-09T01:35:53;14.20;91.60
71084;DHT22;58741;52.672;13.548;2022-09-09T01:38:21;14.20;91.50
71084;DHT22;58741;52.672;13.548;2022-09-09T01:40:48;14.20;91.80
71084;DHT22;58741;52.672;13.548;2022-09-09T01:43:14;14.10;92.20
71084;DHT22;58741;52.672;13.548;2022-09-09T01:45:41;14.10;91.90
71084;DHT22;58741;52.672;13.548;2022-09-09T01:48:07;14.10;92.00
71084;DHT22;58741;52.672;13.548;2022-09-09T01:50:32;14.10;91.80
71084;DHT22;58741;52.672;13.548;2022-09-09T01:52:59;14.10;91.70
71084;DHT22;58741;52.672;13.548;2022-09-09T01:55:40;14.10;91.60
71084;DHT22;58741;52.672;13.548;2022-09-09T02:01:12;14.00;91.50
71084;DHT22;58741;52.672;13.548;2022-09-09T02:03:44;14.00;91.30
71084;DHT22;58741;52.672;13.548;2022-09-09T02:08:53;13.90;91.30
71084;DHT22;58741;52.672;13.548;2022-09-09T02:11:23;13.90;91.30
71084;DHT22;58741;52.672;13.548;2022-09-09T02:13:51;13.90;91.40
71084;DHT22;58741;52.672;13.548;2022-09-09T02:16:38;13.90;91.60
71084;DHT22;58741;52.672;13.548;2022-09-09T02:19:13;13.80;91.60
71084;DHT22;58741;52.672;13.548;2022-09-09T02:21:42;13.80;91.50
71084;DHT22;58741;52.672;13.548;2022-09-09T02:24:10;13.80;91.40
71084;DHT22;58741;52.672;13.548;2022-09-09T02:26:40;13.80;91.30
71084;DHT22;58741;52.672;13.548;2022-09-09T02:29:16;13.70;91.20
71084;DHT22;58741;52.672;13.548;2022-09-09T02:31:45;13.80;91.20
71084;DHT22;58741;52.672;13.548;2022-09-09T02:34:13;13.70;91.10
71084;DHT22;58741;52.672;13.548;2022-09-09T02:36:40;13.70;91.20
71084;DHT22;58741;52.672;13.548;2022-09-09T02:39:08;13.70;91.20
71084;DHT22;58741;52.672;13.548;2022-09-09T02:41:36;13.60;91.20
71084;DHT22;58741;52.672;13.548;2022-09-09T02:44:08;13.60;91.80
71084;DHT22;58741;52.672;13.548;2022-09-09T02:52:05;13.50;91.40
71084;DHT22;58741;52.672;13.548;2022-09-09T02:54:33;13.50;91.30
71084;DHT22;58741;52.672;13.548;2022-09-09T02:57:28;13.40;91.30
71084;DHT22;58741;52.672;13.548;2022-09-09T02:59:57;13.40;91.40
71084;DHT22;58741;52.672;13.548;2022-09-09T03:02:23;13.40;91.30
71084;DHT22;58741;52.672;13.548;2022-09-09T03:04:49;13.30;91.30
71084;DHT22;58741;52.672;13.548;2022-09-09T03:07:18;13.30;91.30
71084;DHT22;58741;52.672;13.548;2022-09-09T03:09:44;13.30;91.40
71084;DHT22;58741;52.672;13.548;2022-09-09T03:12:10;13.20;91.30
71084;DHT22;58741;52.672;13.548;2022-09-09T03:14:36;13.30;91.30
71084;DHT22;58741;52.672;13.548;2022-09-09T03:17:04;13.20;91.20
71084;DHT22;58741;52.672;13.548;2022-09-09T03:19:29;13.20;91.20
71084;DHT22;58741;52.672;13.548;2022-09-09T03:21:55;13.20;91.20
71084;DHT22;58741;52.672;13.548;2022-09-09T03:24:21;13.10;91.20
71084;DHT22;58741;52.672;13.548;2022-09-09T03:26:48;13.10;91.20
71084;DHT22;58741;52.672;13.548;2022-09-09T03:29:13;13.10;91.10
71084;DHT22;58741;52.672;13.548;2022-09-09T03:31:40;13.10;91.20
71084;DHT22;58741;52.672;13.548;2022-09-09T03:34:06;13.00;91.20
71084;DHT22;58741;52.672;13.548;2022-09-09T03:36:31;13.00;91.20
71084;DHT22;58741;52.672;13.548;2022-09-09T03:38:57;12.90;91.00
71084;DHT22;58741;52.672;13.548;2022-09-09T03:41:23;12.90;91.30
71084;DHT22;58741;52.672;13.548;2022-09-09T03:43:50;12.90;91.00
71084;DHT22;58741;52.672;13.548;2022-09-09T03:46:17;12.90;91.30
71084;DHT22;58741;52.672;13.548;2022-09-09T03:48:42;12.90;91.30
71084;DHT22;58741;52.672;13.548;2022-09-09T03:51:08;12.80;91.20
71084;DHT22;58741;52.672;13.548;2022-09-09T03:53:33;12.80;91.30
71084;DHT22;58741;52.672;13.548;2022-09-09T03:55:59;12.80;91.20
71084;DHT22;58741;52.672;13.548;2022-09-09T03:58:26;12.80;91.20
71084;DHT22;58741;52.672;13.548;2022-09-09T04:00:59;12.80;91.30
71084;DHT22;58741;52.672;13.548;2022-09-09T04:03:25;12.70;91.30
71084;DHT22;58741;52.672;13.548;2022-09-09T04:05:52;12.70;91.20
71084;DHT22;58741;52.672;13.548;2022-09-09T04:08:21;12.70;91.20
71084;DHT22;58741;52.672;13.548;2022-09-09T04:10:50;12.60;91.10
71084;DHT22;58741;52.672;13.548;2022-09-09T04:13:17;12.60;91.10
71084;DHT22;58741;52.672;13.548;2022-09-09T04:15:44;12.60;91.20
71084;DHT22;58741;52.672;13.548;2022-09-09T04:18:10;12.60;91.30
71084;DHT22;58741;52.672;13.548;2022-09-09T04:20:37;12.60;91.20
71084;DHT22;58741;52.672;13.548;2022-09-09T04:23:03;12.50;91.20
71084;DHT22;58741;52.672;13.548;2022-09-09T04:25:28;12.50;91.20
71084;DHT22;58741;52.672;13.548;2022-09-09T04:27:57;12.50;91.10
71084;DHT22;58741;52.672;13.548;2022-09-09T04:30:24;12.50;91.20
71084;DHT22;58741;52.672;13.548;2022-09-09T04:32:49;12.50;91.40
71084;DHT22;58741;52.672;13.548;2022-09-09T04:35:15;12.50;91.40
71084;DHT22;58741;52.672;13.548;2022-09-09T04:37:41;12.50;91.40
71084;DHT22;58741;52.672;13.548;2022-09-09T04:40:07;12.40;91.70
71084;DHT22;58741;52.672;13.548;2022-09-09T04:42:35;12.40;91.70
71084;DHT22;58741;52.672;13.548;2022-09-09T04:45:01;12.40;91.70
71084;DHT22;58741;52.672;13.548;2022-09-09T04:47:27;12.40;91.80
71084;DHT22;58741;52.672;13.548;2022-09-09T04:49:52;12.40;91.70
71084;DHT22;58741;52.672;13.548;2022-09-09T04:52:20;12.40;91.70
71084;DHT22;58741;52.672;13.548;2022-09-09T04:54:45;12.40;91.60
71084;DHT22;58741;52.672;13.548;2022-09-09T04:57:11;12.40;91.70
71084;DHT22;58741;52.672;13.548;2022-09-09T04:59:36;12.40;91.70
71084;DHT22;58741;52.672;13.548;2022-09-09T05:02:02;12.40;91.80
71084;DHT22;58741;52.672;13.548;2022-09-09T05:04:28;12.40;91.80
71084;DHT22;58741;52.672;13.548;2022-09-09T05:06:54;12.40;91.80
71084;DHT22;58741;52.672;13.548;2022-09-09T05:09:19;12.40;91.80
71084;DHT22;58741;52.672;13.548;2022-09-09T05:11:44;12.40;91.80
71084;DHT22;58741;52.672;13.548;2022-09-09T05:14:10;12.40;91.80
71084;DHT22;58741;52.672;13.548;2022-09-09T05:16:37;12.50;91.90
71084;DHT22;58741;52.672;13.548;2022-09-09T05:19:02;12.50;92.30
71084;DHT22;58741;52.672;13.548;2022-09-09T05:21:28;12.50;93.10
71084;DHT22;58741;52.672;13.548;2022-09-09T05:23:56;12.60;92.70
71084;DHT22;58741;52.672;13.548;2022-09-09T05:26:22;12.60;92.60
71084;DHT22;58741;52.672;13.548;2022-09-09T05:28:48;12.60;92.60
71084;DHT22;58741;52.672;13.548;2022-09-09T05:31:15;12.70;92.90
71084;DHT22;58741;52.672;13.548;2022-09-09T05:33:43;12.80;93.10
71084;DHT22;58741;52.672;13.548;2022-09-09T05:36:13;12.80;93.30
71084;DHT22;58741;52.672;13.548;2022-09-09T05:38:39;12.90;93.60
71084;DHT22;58741;52.672;13.548;2022-09-09T05:41:06;13.00;93.60
71084;DHT22;58741;52.672;13.548;2022-09-09T05:43:32;13.10;93.90
71084;DHT22;58741;52.672;13.548;2022-09-09T05:46:03;13.10;93.70
71084;DHT22;58741;52.672;13.548;2022-09-09T05:48:30;13.20;93.70
71084;DHT22;58741;52.672;13.548;2022-09-09T05:50:58;13.30;93.90
71084;DHT22;58741;52.672;13.548;2022-09-09T05:53:23;13.30;94.10
71084;DHT22;58741;52.672;13.548;2022-09-09T05:55:49;13.40;94.20
71084;DHT22;58741;52.672;13.548;2022-09-09T05:58:15;13.50;94.50
71084;DHT22;58741;52.672;13.548;2022-09-09T06:00:42;13.60;94.20
71084;DHT22;58741;52.672;13.548;2022-09-09T06:03:11;13.70;94.20
71084;DHT22;58741;52.672;13.548;2022-09-09T06:05:36;13.80;94.70
71084;DHT22;58741;52.672;13.548;2022-09-09T06:08:03;13.90;94.90
71084;DHT22;58741;52.672;13.548;2022-09-09T06:10:28;14.00;94.50
71084;DHT22;58741;52.672;13.548;2022-09-09T06:12:54;14.10;94.40
71084;DHT22;58741;52.672;13.548;2022-09-09T06:15:19;14.20;94.50
71084;DHT22;58741;52.672;13.548;2022-09-09T06:17:45;14.30;94.50
71084;DHT22;58741;52.672;13.548;2022-09-09T06:20:10;14.40;94.70
71084;DHT22;58741;52.672;13.548;2022-09-09T06:22:36;14.50;95.20
71084;DHT22;58741;52.672;13.548;2022-09-09T06:25:04;14.70;95.10
71084;DHT22;58741;52.672;13.548;2022-09-09T06:27:30;14.80;95.30
71084;DHT22;58741;52.672;13.548;2022-09-09T06:29:56;14.90;94.90
71084;DHT22;58741;52.672;13.548;2022-09-09T06:32:21;15.10;95.10
71084;DHT22;58741;52.672;13.548;2022-09-09T06:34:47;15.30;94.90
71084;DHT22;58741;52.672;13.548;2022-09-09T06:37:14;15.40;94.80
71084;DHT22;58741;52.672;13.548;2022-09-09T06:39:39;15.50;94.80
71084;DHT22;58741;52.672;13.548;2022-09-09T06:42:05;15.70;94.90
71084;DHT22;58741;52.672;13.548;2022-09-09T06:44:33;15.80;95.00
71084;DHT22;58741;52.672;13.548;2022-09-09T06:46:59;16.00;95.00
71084;DHT22;58741;52.672;13.548;2022-09-09T06:49:24;16.20;94.80
71084;DHT22;58741;52.672;13.548;2022-09-09T06:51:50;16.40;94.10
71084;DHT22;58741;52.672;13.548;2022-09-09T06:54:17;16.50;94.40
71084;DHT22;58741;52.672;13.548;2022-09-09T06:56:43;16.70;93.90
71084;DHT22;58741;52.672;13.548;2022-09-09T06:59:10;16.90;94.30
71084;DHT22;58741;52.672;13.548;2022-09-09T07:01:42;17.10;93.60
71084;DHT22;58741;52.672;13.548;2022-09-09T07:04:09;17.20;92.70
71084;DHT22;58741;52.672;13.548;2022-09-09T07:06:45;17.40;91.90
71084;DHT22;58741;52.672;13.548;2022-09-09T07:09:14;17.40;91.50
71084;DHT22;58741;52.672;13.548;2022-09-09T07:11:47;17.40;91.20
71084;DHT22;58741;52.672;13.548;2022-09-09T07:14:13;17.40;91.20
71084;DHT22;58741;52.672;13.548;2022-09-09T07:16:43;17.40;91.40
71084;DHT22;58741;52.672;13.548;2022-09-09T07:19:10;17.50;91.50
71084;DHT22;58741;52.672;13.548;2022-09-09T07:21:36;17.60;92.40
71084;DHT22;58741;52.672;13.548;2022-09-09T07:24:02;17.70;91.80
71084;DHT22;58741;52.672;13.548;2022-09-09T07:26:29;17.90;91.60
71084;DHT22;58741;52.672;13.548;2022-09-09T07:28:56;18.10;91.40
71084;DHT22;58741;52.672;13.548;2022-09-09T07:31:30;18.30;90.20
71084;DHT22;58741;52.672;13.548;2022-09-09T07:33:56;18.40;90.40
71084;DHT22;58741;52.672;13.548;2022-09-09T07:36:25;18.60;90.80
71084;DHT22;58741;52.672;13.548;2022-09-09T07:38:55;18.80;90.50
71084;DHT22;58741;52.672;13.548;2022-09-09T07:41:26;18.90;88.90
71084;DHT22;58741;52.672;13.548;2022-09-09T07:43:52;19.10;89.10
71084;DHT22;58741;52.672;13.548;2022-09-09T07:46:23;19.30;88.00
71084;DHT22;58741;52.672;13.548;2022-09-09T07:48:52;19.40;87.20
71084;DHT22;58741;52.672;13.548;2022-09-09T07:51:23;19.60;87.40
71084;DHT22;58741;52.672;13.548;2022-09-09T07:53:53;19.70;87.80
71084;DHT22;58741;52.672;13.548;2022-09-09T07:56:20;19.90;86.30
71084;DHT22;58741;52.672;13.548;2022-09-09T07:58:49;20.10;87.20
71084;DHT22;58741;52.672;13.548;2022-09-09T08:01:18;20.30;86.40
71084;DHT22;58741;52.672;13.548;2022-09-09T08:03:45;20.50;85.50
71084;DHT22;58741;52.672;13.548;2022-09-09T08:06:11;20.60;84.30
71084;DHT22;58741;52.672;13.548;2022-09-09T08:08:38;20.80;83.70
71084;DHT22;58741;52.672;13.548;2022-09-09T08:11:13;20.90;83.50
71084;DHT22;58741;52.672;13.548;2022-09-09T08:13:40;21.10;82.50
71084;DHT22;58741;52.672;13.548;2022-09-09T08:16:10;21.30;81.90
71084;DHT22;58741;52.672;13.548;2022-09-09T08:18:37;21.50;80.30
71084;DHT22;58741;52.672;13.548;2022-09-09T08:21:14;21.60;77.00
71084;DHT22;58741;52.672;13.548;2022-09-09T08:23:41;21.70;79.40
71084;DHT22;58741;52.672;13.548;2022-09-09T08:26:15;21.90;77.10
71084;DHT22;58741;52.672;13.548;2022-09-09T08:28:42;22.00;78.30
71084;DHT22;58741;52.672;13.548;2022-09-09T08:31:10;22.10;77.00
71084;DHT22;58741;52.672;13.548;2022-09-09T08:33:36;22.20;77.00
71084;DHT22;58741;52.672;13.548;2022-09-09T08:36:04;22.40;76.20
71084;DHT22;58741;52.672;13.548;2022-09-09T08:38:30;22.50;76.20
71084;DHT22;58741;52.672;13.548;2022-09-09T08:41:07;22.60;73.30
71084;DHT22;58741;52.672;13.548;2022-09-09T08:43:35;22.70;72.60
71084;DHT22;58741;52.672;13.548;2022-09-09T08:46:16;22.70;73.30
71084;DHT22;58741;52.672;13.548;2022-09-09T08:49:10;22.70;71.30
71084;DHT22;58741;52.672;13.548;2022-09-09T08:51:40;22.70;73.80
71084;DHT22;58741;52.672;13.548;2022-09-09T08:54:08;22.80;72.80
71084;DHT22;58741;52.672;13.548;2022-09-09T08:56:35;22.80;72.90
71084;DHT22;58741;52.672;13.548;2022-09-09T08:59:02;22.90;69.50
71084;DHT22;58741;52.672;13.548;2022-09-09T09:07:21;23.00;71.40
71084;DHT22;58741;52.672;13.548;2022-09-09T09:09:57;23.00;71.00
71084;DHT22;58741;52.672;13.548;2022-09-09T09:12:35;22.90;70.60
71084;DHT22;58741;52.672;13.548;2022-09-09T09:15:01;22.80;71.80
71084;DHT22;58741;52.672;13.548;2022-09-09T09:17:28;22.80;71.60
71084;DHT22;58741;52.672;13.548;2022-09-09T09:19:57;22.70;69.40
71084;DHT22;58741;52.672;13.548;2022-09-09T09:22:35;22.60;70.90
71084;DHT22;58741;52.672;13.548;2022-09-09T09:25:17;22.60;71.80
71084;DHT22;58741;52.672;13.548;2022-09-09T09:28:11;22.50;71.80
71084;DHT22;58741;52.672;13.548;2022-09-09T09:30:42;22.40;70.20
71084;DHT22;58741;52.672;13.548;2022-09-09T09:33:45;22.40;71.00
71084;DHT22;58741;52.672;13.548;2022-09-09T09:36:12;22.30;71.10
71084;DHT22;58741;52.672;13.548;2022-09-09T09:38:52;22.30;72.70
71084;DHT22;58741;52.672;13.548;2022-09-09T09:41:36;22.40;73.20
71084;DHT22;58741;52.672;13.548;2022-09-09T09:44:03;22.60;72.30
71084;DHT22;58741;52.672;13.548;2022-09-09T09:46:29;22.70;71.40
71084;DHT22;58741;52.672;13.548;2022-09-09T09:49:03;22.90;70.30
71084;DHT22;58741;52.672;13.548;2022-09-09T09:51:31;23.00;69.70
71084;DHT22;58741;52.672;13.548;2022-09-09T09:54:27;23.20;69.10
71084;DHT22;58741;52.672;13.548;2022-09-09T09:56:54;23.30;70.60
71084;DHT22;58741;52.672;13.548;2022-09-09T09:59:24;23.40;69.40
71084;DHT22;58741;52.672;13.548;2022-09-09T10:02:14;23.50;70.60
71084;DHT22;58741;52.672;13.548;2022-09-09T10:04:40;23.60;69.00
71084;DHT22;58741;52.672;13.548;2022-09-09T10:07:15;23.70;67.10
71084;DHT22;58741;52.672;13.548;2022-09-09T10:09:42;23.70;66.70
71084;DHT22;58741;52.672;13.548;2022-09-09T10:12:33;23.70;65.50
71084;DHT22;58741;52.672;13.548;2022-09-09T10:15:27;23.70;67.50
71084;DHT22;58741;52.672;13.548;2022-09-09T10:18:17;23.70;69.10
71084;DHT22;58741;52.672;13.548;2022-09-09T10:21:06;23.80;68.30
71084;DHT22;58741;52.672;13.548;2022-09-09T10:34:58;24.60;66.10
71084;DHT22;58741;52.672;13.548;2022-09-09T10:37:48;24.60;64.30
71084;DHT22;58741;52.672;13.548;2022-09-09T10:42:47;24.80;65.50
71084;DHT22;58741;52.672;13.548;2022-09-09T10:45:23;25.00;65.90
71084;DHT22;58741;52.672;13.548;2022-09-09T10:48:15;25.10;66.50
71084;DHT22;58741;52.672;13.548;2022-09-09T10:56:28;25.40;61.10
71084;DHT22;58741;52.672;13.548;2022-09-09T10:59:04;25.30;60.20
71084;DHT22;58741;52.672;13.548;2022-09-09T11:01:41;25.30;62.40
71084;DHT22;58741;52.672;13.548;2022-09-09T11:04:23;25.30;63.30
71084;DHT22;58741;52.672;13.548;2022-09-09T11:06:54;25.40;64.70
71084;DHT22;58741;52.672;13.548;2022-09-09T11:09:23;25.40;62.60
71084;DHT22;58741;52.672;13.548;2022-09-09T11:11:54;25.50;61.20
71084;DHT22;58741;52.672;13.548;2022-09-09T11:16:52;25.70;60.00
71084;DHT22;58741;52.672;13.548;2022-09-09T11:19:44;25.60;60.30
71084;DHT22;58741;52.672;13.548;2022-09-09T11:22:25;25.70;62.00
71084;DHT22;58741;52.672;13.548;2022-09-09T11:33:41;26.20;59.60
71084;DHT22;58741;52.672;13.548;2022-09-09T11:36:37;26.30;61.00
71084;DHT22;58741;52.672;13.548;2022-09-09T11:42:17;26.40;57.50
71084;DHT22;58741;52.672;13.548;2022-09-09T11:44:43;26.50;59.30
71084;DHT22;58741;52.672;13.548;2022-09-09T11:47:29;26.60;59.10
71084;DHT22;58741;52.672;13.548;2022-09-09T11:52:45;26.80;60.20
71084;DHT22;58741;52.672;13.548;2022-09-09T11:55:30;26.90;58.60
71084;DHT22;58741;52.672;13.548;2022-09-09T11:57:59;26.90;55.30
71084;DHT22;58741;52.672;13.548;2022-09-09T12:00:51;26.80;57.10
71084;DHT22;58741;52.672;13.548;2022-09-09T12:03:40;26.70;57.90
71084;DHT22;58741;52.672;13.548;2022-09-09T12:06:25;26.70;58.30
71084;DHT22;58741;52.672;13.548;2022-09-09T12:08:55;26.80;59.00
71084;DHT22;58741;52.672;13.548;2022-09-09T12:11:29;26.90;57.50
71084;DHT22;58741;52.672;13.548;2022-09-09T12:13:58;27.10;58.50
71084;DHT22;58741;52.672;13.548;2022-09-09T12:16:36;27.20;55.10
71084;DHT22;58741;52.672;13.548;2022-09-09T12:19:15;27.30;57.40
71084;DHT22;58741;52.672;13.548;2022-09-09T12:22:03;27.30;56.20
71084;DHT22;58741;52.672;13.548;2022-09-09T12:25:03;27.50;58.20
71084;DHT22;58741;52.672;13.548;2022-09-09T12:27:36;27.60;57.20
71084;DHT22;58741;52.672;13.548;2022-09-09T12:30:10;27.60;55.60
71084;DHT22;58741;52.672;13.548;2022-09-09T12:32:37;27.50;56.60
71084;DHT22;58741;52.672;13.548;2022-09-09T12:35:09;27.40;54.90
71084;DHT22;58741;52.672;13.548;2022-09-09T12:37:40;27.40;57.00
71084;DHT22;58741;52.672;13.548;2022-09-09T12:40:21;27.50;56.00
71084;DHT22;58741;52.672;13.548;2022-09-09T12:42:48;27.70;55.60
71084;DHT22;58741;52.672;13.548;2022-09-09T12:45:22;27.80;54.00
71084;DHT22;58741;52.672;13.548;2022-09-09T12:47:53;27.70;55.60
71084;DHT22;58741;52.672;13.548;2022-09-09T12:50:31;27.70;53.60
71084;DHT22;58741;52.672;13.548;2022-09-09T12:53:07;27.80;54.50
71084;DHT22;58741;52.672;13.548;2022-09-09T12:55:37;27.60;53.40
71084;DHT22;58741;52.672;13.548;2022-09-09T12:58:04;27.60;52.90
71084;DHT22;58741;52.672;13.548;2022-09-09T13:00:33;27.50;54.00
71084;DHT22;58741;52.672;13.548;2022-09-09T13:03:01;27.40;55.00
71084;DHT22;58741;52.672;13.548;2022-09-09T13:05:34;27.30;55.30
71084;DHT22;58741;52.672;13.548;2022-09-09T13:08:02;27.20;55.00
71084;DHT22;58741;52.672;13.548;2022-09-09T13:10:30;27.10;52.10
71084;DHT22;58741;52.672;13.548;2022-09-09T13:12:57;27.00;55.90
71084;DHT22;58741;52.672;13.548;2022-09-09T13:15:26;26.90;55.60
71084;DHT22;58741;52.672;13.548;2022-09-09T13:17:55;26.90;55.40
71084;DHT22;58741;52.672;13.548;2022-09-09T13:20:22;26.80;54.00
71084;DHT22;58741;52.672;13.548;2022-09-09T13:22:49;26.70;54.10
71084;DHT22;58741;52.672;13.548;2022-09-09T13:25:21;26.60;52.60
71084;DHT22;58741;52.672;13.548;2022-09-09T13:27:58;26.40;54.10
71084;DHT22;58741;52.672;13.548;2022-09-09T13:30:37;26.20;55.60
71084;DHT22;58741;52.672;13.548;2022-09-09T13:35:55;25.90;55.90
71084;DHT22;58741;52.672;13.548;2022-09-09T13:38:21;25.80;56.20
71084;DHT22;58741;52.672;13.548;2022-09-09T13:40:56;25.70;55.90
71084;DHT22;58741;52.672;13.548;2022-09-09T13:43:24;25.50;57.20
71084;DHT22;58741;52.672;13.548;2022-09-09T13:45:59;25.40;56.90
71084;DHT22;58741;52.672;13.548;2022-09-09T13:48:25;25.40;57.70
71084;DHT22;58741;52.672;13.548;2022-09-09T13:50:56;25.30;57.00
71084;DHT22;58741;52.672;13.548;2022-09-09T13:53:21;25.20;58.10
71084;DHT22;58741;52.672;13.548;2022-09-09T13:55:47;25.20;57.80
71084;DHT22;58741;52.672;13.548;2022-09-09T13:58:17;25.10;58.10
71084;DHT22;58741;52.672;13.548;2022-09-09T14:00:47;25.00;58.60
71084;DHT22;58741;52.672;13.548;2022-09-09T14:03:13;25.00;57.80
71084;DHT22;58741;52.672;13.548;2022-09-09T14:05:39;24.90;58.20
71084;DHT22;58741;52.672;13.548;2022-09-09T14:08:05;24.80;58.30
71084;DHT22;58741;52.672;13.548;2022-09-09T14:10:31;24.80;58.60
71084;DHT22;58741;52.672;13.548;2022-09-09T14:12:57;24.80;58.10
71084;DHT22;58741;52.672;13.548;2022-09-09T14:15:22;24.80;58.60
71084;DHT22;58741;52.672;13.548;2022-09-09T14:17:47;24.90;59.00
71084;DHT22;58741;52.672;13.548;2022-09-09T14:20:14;24.90;59.80
71084;DHT22;58741;52.672;13.548;2022-09-09T14:22:41;25.00;56.80
71084;DHT22;58741;52.672;13.548;2022-09-09T14:25:07;25.00;55.30
71084;DHT22;58741;52.672;13.548;2022-09-09T14:27:32;24.90;56.00
71084;DHT22;58741;52.672;13.548;2022-09-09T14:29:58;24.80;56.20
71084;DHT22;58741;52.672;13.548;2022-09-09T14:32:25;24.90;56.90
71084;DHT22;58741;52.672;13.548;2022-09-09T14:34:51;24.80;56.10
71084;DHT22;58741;52.672;13.548;2022-09-09T14:37:17;24.80;56.50
71084;DHT22;58741;52.672;13.548;2022-09-09T14:39:43;24.80;57.10
71084;DHT22;58741;52.672;13.548;2022-09-09T14:42:10;24.80;58.00
71084;DHT22;58741;52.672;13.548;2022-09-09T14:44:36;24.80;57.80
71084;DHT22;58741;52.672;13.548;2022-09-09T14:47:04;24.70;58.10
71084;DHT22;58741;52.672;13.548;2022-09-09T14:49:30;24.70;57.70
71084;DHT22;58741;52.672;13.548;2022-09-09T14:51:56;24.70;58.70
71084;DHT22;58741;52.672;13.548;2022-09-09T14:54:22;24.80;59.60
71084;DHT22;58741;52.672;13.548;2022-09-09T14:56:48;24.90;60.10
71084;DHT22;58741;52.672;13.548;2022-09-09T14:59:14;24.90;59.80
71084;DHT22;58741;52.672;13.548;2022-09-09T15:01:39;24.90;58.60
71084;DHT22;58741;52.672;13.548;2022-09-09T15:04:05;24.80;56.80
71084;DHT22;58741;52.672;13.548;2022-09-09T15:06:32;24.80;58.10
71084;DHT22;58741;52.672;13.548;2022-09-09T15:08:59;24.70;57.30
71084;DHT22;58741;52.672;13.548;2022-09-09T15:11:30;24.60;57.60
71084;DHT22;58741;52.672;13.548;2022-09-09T15:13:57;24.50;57.10
71084;DHT22;58741;52.672;13.548;2022-09-09T15:16:26;24.40;58.70
71084;DHT22;58741;52.672;13.548;2022-09-09T15:18:54;24.40;58.30
71084;DHT22;58741;52.672;13.548;2022-09-09T15:21:21;24.50;59.00
71084;DHT22;58741;52.672;13.548;2022-09-09T15:23:48;24.50;58.70
71084;DHT22;58741;52.672;13.548;2022-09-09T15:26:14;24.50;58.90
71084;DHT22;58741;52.672;13.548;2022-09-09T15:28:41;24.50;58.50
71084;DHT22;58741;52.672;13.548;2022-09-09T15:31:11;24.40;56.00
71084;DHT22;58741;52.672;13.548;2022-09-09T15:33:37;24.40;58.30
71084;DHT22;58741;52.672;13.548;2022-09-09T15:36:21;24.30;57.30
71084;DHT22;58741;52.672;13.548;2022-09-09T15:38:47;24.30;57.60
71084;DHT22;58741;52.672;13.548;2022-09-09T15:41:13;24.20;58.00
71084;DHT22;58741;52.672;13.548;2022-09-09T15:43:42;24.20;58.20
71084;DHT22;58741;52.672;13.548;2022-09-09T15:48:44;24.40;60.40
71084;DHT22;58741;52.672;13.548;2022-09-09T15:51:10;24.60;58.10
71084;DHT22;58741;52.672;13.548;2022-09-09T15:53:37;24.80;58.80
71084;DHT22;58741;52.672;13.548;2022-09-09T15:56:07;24.90;57.20
71084;DHT22;58741;52.672;13.548;2022-09-09T15:58:34;24.90;56.70
71084;DHT22;58741;52.672;13.548;2022-09-09T16:01:05;24.80;57.00
71084;DHT22;58741;52.672;13.548;2022-09-09T16:03:36;24.70;56.20
71084;DHT22;58741;52.672;13.548;2022-09-09T16:06:03;24.60;57.10
71084;DHT22;58741;52.672;13.548;2022-09-09T16:08:37;24.50;58.30
71084;DHT22;58741;52.672;13.548;2022-09-09T16:11:24;24.50;59.60
71084;DHT22;58741;52.672;13.548;2022-09-09T16:13:52;24.60;58.40
71084;DHT22;58741;52.672;13.548;2022-09-09T16:16:20;24.70;58.00
71084;DHT22;58741;52.672;13.548;2022-09-09T16:18:49;24.70;57.50
71084;DHT22;58741;52.672;13.548;2022-09-09T16:21:17;24.50;56.50
71084;DHT22;58741;52.672;13.548;2022-09-09T16:23:44;24.40;56.20
71084;DHT22;58741;52.672;13.548;2022-09-09T16:26:14;24.20;56.80
71084;DHT22;58741;52.672;13.548;2022-09-09T16:28:40;24.10;57.20
71084;DHT22;58741;52.672;13.548;2022-09-09T16:31:07;23.90;57.20
71084;DHT22;58741;52.672;13.548;2022-09-09T16:33:33;23.80;57.80
71084;DHT22;58741;52.672;13.548;2022-09-09T16:36:05;23.60;57.90
71084;DHT22;58741;52.672;13.548;2022-09-09T16:38:30;23.40;58.40
71084;DHT22;58741;52.672;13.548;2022-09-09T16:40:59;23.30;59.20
71084;DHT22;58741;52.672;13.548;2022-09-09T16:43:25;23.20;59.80
71084;DHT22;58741;52.672;13.548;2022-09-09T16:45:51;23.10;59.90
71084;DHT22;58741;52.672;13.548;2022-09-09T16:48:16;22.90;60.70
71084;DHT22;58741;52.672;13.548;2022-09-09T16:50:41;22.80;60.90
71084;DHT22;58741;52.672;13.548;2022-09-09T16:53:07;22.70;61.80
71084;DHT22;58741;52.672;13.548;2022-09-09T16:55:40;22.70;62.60
71084;DHT22;58741;52.672;13.548;2022-09-09T16:58:06;22.50;62.80
71084;DHT22;58741;52.672;13.548;2022-09-09T17:00:32;22.40;63.40
71084;DHT22;58741;52.672;13.548;2022-09-09T17:02:57;22.30;63.70
71084;DHT22;58741;52.672;13.548;2022-09-09T17:05:24;22.30;64.40
71084;DHT22;58741;52.672;13.548;2022-09-09T17:07:50;22.20;64.90
71084;DHT22;58741;52.672;13.548;2022-09-09T17:10:16;22.10;64.70